Terminal Aerodrome Forecast
Issued by NWS Omaha/Valley, NE

Home | Current Version | Previous Version | Graphics & Text | Print | Product List | Glossary On
Versions: 1 2 3 4 5 6 7 8 9 10 11 12 13 14 15 16 17 18 19
000
FTUS43 KOAX 261120
TAFOFK
TAF
KOFK 261120Z 2612/2712 32017G25KT P6SM OVC012
      TEMPO 2612/2614 6SM -DZ OVC008
     FM261800 33016G23KT P6SM OVC025
     FM262100 33015G23KT P6SM BKN030
     FM270200 34009KT P6SM SCT030=

USA.gov is the U.S. government's official web portal to all federal, state and local government web resources and services.